METAR Data
IDs: Format: Raw Decoded Include TAF

Data at: 0019 UTC 23 Mar 2019

METAR for:KGNV (Gainesville Rgnl, FL, US)
Text:KGNV 222353Z 25012KT 10SM CLR 21/06 A3007 RMK AO2 SLP180 T02060061 10261 20206 53015
Temperature: 20.6°C ( 69°F)
Dewpoint: 6.1°C ( 43°F) [RH = 39%]
Pressure (altimeter):30.07 inches Hg (1018.4 mb) [Sea level pressure: 1018.0 mb]
Winds:from the WSW (250 degrees) at 14 MPH (12 knots; 6.2 m/s)
Visibility:10 or more sm (16+ km)
Ceiling:at least 12,000 feet AGL
Clouds:sky clear below 12,000 feet AGL

TAF for:KGNV (Gainesville Rgnl, FL, US) issued at 2320 UTC 22 Mar 2019
Text:KGNV 222320Z 2300/2324 VRB04KT P6SM SKC
Forecast period:0000 to 1500 UTC 23 March 2019
Forecast type:FROM: standard forecast or significant change
Winds:variable direction winds at 5 MPH (4 knots; 2.1 m/s)
Visibility:6 or more sm (10+ km)
Ceiling:at least 12,000 feet AGL
Clouds:clear skies
Text:FM231500 06007KT P6SM SKC
Forecast period:1500 UTC 23 March 2019 to 0000 UTC 24 March 2019
Forecast type:FROM: standard forecast or significant change
Winds:from the ENE (60 degrees) at 8 MPH (7 knots; 3.6 m/s)
Visibility:6 or more sm (10+ km)
Ceiling:at least 12,000 feet AGL
Clouds:clear skies